sensor_id;sensor_type;location;lat;lon;timestamp;temperature;humidity
11764;DHT22;5939;56.522;14.950;2023-05-19T00:01:57;11.50;94.60
11764;DHT22;5939;56.522;14.950;2023-05-19T00:04:26;11.50;94.60
11764;DHT22;5939;56.522;14.950;2023-05-19T00:06:53;11.40;94.70
11764;DHT22;5939;56.522;14.950;2023-05-19T00:09:18;11.40;94.70
11764;DHT22;5939;56.522;14.950;2023-05-19T00:11:44;11.40;94.80
11764;DHT22;5939;56.522;14.950;2023-05-19T00:14:11;11.40;94.80
11764;DHT22;5939;56.522;14.950;2023-05-19T06:15:09;11.30;94.80
11764;DHT22;5939;56.522;14.950;2023-05-19T06:17:34;11.20;99.80
11764;DHT22;5939;56.522;14.950;2023-05-19T06:20:01;11.30;99.40
11764;DHT22;5939;56.522;14.950;2023-05-19T06:22:27;11.40;99.60
11764;DHT22;5939;56.522;14.950;2023-05-19T06:24:53;11.60;99.50
11764;DHT22;5939;56.522;14.950;2023-05-19T06:27:18;11.70;99.40
11764;DHT22;5939;56.522;14.950;2023-05-19T06:29:44;11.80;99.40
11764;DHT22;5939;56.522;14.950;2023-05-19T06:32:10;11.90;99.30
11764;DHT22;5939;56.522;14.950;2023-05-19T06:34:35;12.00;99.20
11764;DHT22;5939;56.522;14.950;2023-05-19T06:37:02;12.20;99.10
11764;DHT22;5939;56.522;14.950;2023-05-19T06:39:28;12.30;99.10
11764;DHT22;5939;56.522;14.950;2023-05-19T06:41:54;12.40;98.90
11764;DHT22;5939;56.522;14.950;2023-05-19T06:44:21;12.50;98.80
11764;DHT22;5939;56.522;14.950;2023-05-19T06:46:47;12.60;98.70
11764;DHT22;5939;56.522;14.950;2023-05-19T06:49:12;12.70;98.60
11764;DHT22;5939;56.522;14.950;2023-05-19T06:51:38;12.80;98.60
11764;DHT22;5939;56.522;14.950;2023-05-19T06:54:03;12.90;98.50
11764;DHT22;5939;56.522;14.950;2023-05-19T06:56:29;13.00;98.40
11764;DHT22;5939;56.522;14.950;2023-05-19T06:58:55;13.20;98.40
11764;DHT22;5939;56.522;14.950;2023-05-19T07:01:20;13.20;98.30
11764;DHT22;5939;56.522;14.950;2023-05-19T07:03:46;13.40;98.30
11764;DHT22;5939;56.522;14.950;2023-05-19T07:06:12;13.50;98.20
11764;DHT22;5939;56.522;14.950;2023-05-19T07:08:41;13.60;98.00
11764;DHT22;5939;56.522;14.950;2023-05-19T07:11:06;13.70;97.70
11764;DHT22;5939;56.522;14.950;2023-05-19T07:13:32;13.80;97.80
11764;DHT22;5939;56.522;14.950;2023-05-19T07:15:58;13.90;98.00
11764;DHT22;5939;56.522;14.950;2023-05-19T07:18:23;14.00;97.60
11764;DHT22;5939;56.522;14.950;2023-05-19T07:20:51;14.10;97.70
11764;DHT22;5939;56.522;14.950;2023-05-19T07:23:17;14.20;97.40
11764;DHT22;5939;56.522;14.950;2023-05-19T07:25:43;14.30;97.60
11764;DHT22;5939;56.522;14.950;2023-05-19T07:28:08;14.40;97.20
11764;DHT22;5939;56.522;14.950;2023-05-19T07:30:34;14.50;97.20
11764;DHT22;5939;56.522;14.950;2023-05-19T07:33:00;14.60;97.10
11764;DHT22;5939;56.522;14.950;2023-05-19T07:35:25;14.70;96.90
11764;DHT22;5939;56.522;14.950;2023-05-19T07:37:51;14.80;96.80
11764;DHT22;5939;56.522;14.950;2023-05-19T07:40:17;14.90;96.90
11764;DHT22;5939;56.522;14.950;2023-05-19T07:42:43;15.00;96.50
11764;DHT22;5939;56.522;14.950;2023-05-19T07:45:09;15.10;96.50
11764;DHT22;5939;56.522;14.950;2023-05-19T07:47:35;15.20;96.30
11764;DHT22;5939;56.522;14.950;2023-05-19T07:50:01;15.30;96.30
11764;DHT22;5939;56.522;14.950;2023-05-19T07:52:27;15.30;96.30
11764;DHT22;5939;56.522;14.950;2023-05-19T07:54:53;15.40;96.40
11764;DHT22;5939;56.522;14.950;2023-05-19T07:57:18;15.50;96.00
11764;DHT22;5939;56.522;14.950;2023-05-19T07:59:44;15.60;95.70
11764;DHT22;5939;56.522;14.950;2023-05-19T08:02:10;15.70;95.90
11764;DHT22;5939;56.522;14.950;2023-05-19T08:04:35;15.80;95.90
11764;DHT22;5939;56.522;14.950;2023-05-19T08:07:01;15.90;96.00
11764;DHT22;5939;56.522;14.950;2023-05-19T08:09:27;15.90;96.00
11764;DHT22;5939;56.522;14.950;2023-05-19T08:11:53;16.00;95.80
11764;DHT22;5939;56.522;14.950;2023-05-19T08:14:19;16.10;95.80
11764;DHT22;5939;56.522;14.950;2023-05-19T08:16:47;16.20;95.70
11764;DHT22;5939;56.522;14.950;2023-05-19T08:19:13;16.30;95.70
11764;DHT22;5939;56.522;14.950;2023-05-19T08:21:38;16.30;95.60
11764;DHT22;5939;56.522;14.950;2023-05-19T08:24:07;16.40;95.50
11764;DHT22;5939;56.522;14.950;2023-05-19T08:26:32;16.50;95.30
11764;DHT22;5939;56.522;14.950;2023-05-19T08:28:58;16.60;95.20
11764;DHT22;5939;56.522;14.950;2023-05-19T08:31:24;16.70;95.30
11764;DHT22;5939;56.522;14.950;2023-05-19T08:33:49;16.70;95.30
11764;DHT22;5939;56.522;14.950;2023-05-19T08:36:15;16.80;95.30
11764;DHT22;5939;56.522;14.950;2023-05-19T08:38:41;16.90;95.30
11764;DHT22;5939;56.522;14.950;2023-05-19T08:41:07;17.00;95.30
11764;DHT22;5939;56.522;14.950;2023-05-19T08:43:33;17.10;95.10
11764;DHT22;5939;56.522;14.950;2023-05-19T08:45:59;17.20;95.00
11764;DHT22;5939;56.522;14.950;2023-05-19T08:48:28;17.20;94.70
11764;DHT22;5939;56.522;14.950;2023-05-19T08:51:30;17.30;94.80
11764;DHT22;5939;56.522;14.950;2023-05-19T08:54:19;17.40;94.30
11764;DHT22;5939;56.522;14.950;2023-05-19T08:56:49;17.40;94.50
11764;DHT22;5939;56.522;14.950;2023-05-19T08:59:16;17.50;94.30
11764;DHT22;5939;56.522;14.950;2023-05-19T09:01:45;17.60;94.30
11764;DHT22;5939;56.522;14.950;2023-05-19T09:04:12;17.70;93.90
11764;DHT22;5939;56.522;14.950;2023-05-19T09:06:38;17.70;93.70
11764;DHT22;5939;56.522;14.950;2023-05-19T09:09:06;17.80;94.10
11764;DHT22;5939;56.522;14.950;2023-05-19T09:11:33;17.90;93.60
11764;DHT22;5939;56.522;14.950;2023-05-19T09:14:02;17.90;93.10
11764;DHT22;5939;56.522;14.950;2023-05-19T09:16:28;18.00;93.10
11764;DHT22;5939;56.522;14.950;2023-05-19T09:18:56;18.00;93.20
11764;DHT22;5939;56.522;14.950;2023-05-19T09:21:29;18.10;93.30
11764;DHT22;5939;56.522;14.950;2023-05-19T09:24:05;18.10;93.30
11764;DHT22;5939;56.522;14.950;2023-05-19T09:26:38;18.20;92.90
11764;DHT22;5939;56.522;14.950;2023-05-19T09:29:14;18.20;92.30
11764;DHT22;5939;56.522;14.950;2023-05-19T09:31:55;18.30;92.80
11764;DHT22;5939;56.522;14.950;2023-05-19T09:34:29;18.40;92.80
11764;DHT22;5939;56.522;14.950;2023-05-19T09:36:55;18.40;92.90
11764;DHT22;5939;56.522;14.950;2023-05-19T09:39:22;18.50;92.90
11764;DHT22;5939;56.522;14.950;2023-05-19T09:41:53;18.50;92.90
11764;DHT22;5939;56.522;14.950;2023-05-19T09:46:52;18.70;92.90
11764;DHT22;5939;56.522;14.950;2023-05-19T09:49:26;18.70;92.90
11764;DHT22;5939;56.522;14.950;2023-05-19T09:51:56;18.80;93.00
11764;DHT22;5939;56.522;14.950;2023-05-19T09:54:23;18.80;92.90
11764;DHT22;5939;56.522;14.950;2023-05-19T09:57:02;18.90;92.90
11764;DHT22;5939;56.522;14.950;2023-05-19T09:59:29;18.90;92.60
11764;DHT22;5939;56.522;14.950;2023-05-19T10:01:57;19.00;92.30
11764;DHT22;5939;56.522;14.950;2023-05-19T10:04:24;19.00;92.30
11764;DHT22;5939;56.522;14.950;2023-05-19T10:06:52;19.10;92.20
11764;DHT22;5939;56.522;14.950;2023-05-19T10:09:22;19.10;92.30
11764;DHT22;5939;56.522;14.950;2023-05-19T10:11:56;19.20;92.10
11764;DHT22;5939;56.522;14.950;2023-05-19T10:14:26;19.20;91.80
11764;DHT22;5939;56.522;14.950;2023-05-19T10:16:53;19.30;92.10
11764;DHT22;5939;56.522;14.950;2023-05-19T10:19:20;19.30;92.10
11764;DHT22;5939;56.522;14.950;2023-05-19T10:21:49;19.40;92.30
11764;DHT22;5939;56.522;14.950;2023-05-19T10:24:16;19.40;92.20
11764;DHT22;5939;56.522;14.950;2023-05-19T10:26:52;19.50;92.00
11764;DHT22;5939;56.522;14.950;2023-05-19T10:29:24;19.50;91.80
11764;DHT22;5939;56.522;14.950;2023-05-19T10:31:52;19.60;92.00
11764;DHT22;5939;56.522;14.950;2023-05-19T10:39:50;19.80;92.00
11764;DHT22;5939;56.522;14.950;2023-05-19T10:43:04;19.80;91.70
11764;DHT22;5939;56.522;14.950;2023-05-19T10:45:38;19.90;91.80
11764;DHT22;5939;56.522;14.950;2023-05-19T10:48:10;19.90;91.70
11764;DHT22;5939;56.522;14.950;2023-05-19T10:50:38;20.00;91.50
11764;DHT22;5939;56.522;14.950;2023-05-19T10:53:03;20.00;91.60
11764;DHT22;5939;56.522;14.950;2023-05-19T10:55:53;20.00;91.90
11764;DHT22;5939;56.522;14.950;2023-05-19T10:58:37;20.10;91.80
11764;DHT22;5939;56.522;14.950;2023-05-19T11:01:16;20.20;91.60
11764;DHT22;5939;56.522;14.950;2023-05-19T11:06:35;20.20;91.60
11764;DHT22;5939;56.522;14.950;2023-05-19T11:09:19;20.30;90.90
11764;DHT22;5939;56.522;14.950;2023-05-19T11:11:53;20.30;91.20
11764;DHT22;5939;56.522;14.950;2023-05-19T11:14:25;20.30;91.20
11764;DHT22;5939;56.522;14.950;2023-05-19T11:16:55;20.40;91.20
11764;DHT22;5939;56.522;14.950;2023-05-19T11:19:29;20.40;91.30
11764;DHT22;5939;56.522;14.950;2023-05-19T11:21:56;20.50;91.10
11764;DHT22;5939;56.522;14.950;2023-05-19T11:27:30;20.50;90.80
11764;DHT22;5939;56.522;14.950;2023-05-19T11:30:08;20.60;90.60
11764;DHT22;5939;56.522;14.950;2023-05-19T11:32:38;20.60;90.80
11764;DHT22;5939;56.522;14.950;2023-05-19T11:35:09;20.60;90.70
11764;DHT22;5939;56.522;14.950;2023-05-19T11:37:35;20.60;90.80
11764;DHT22;5939;56.522;14.950;2023-05-19T11:40:03;20.70;90.70
11764;DHT22;5939;56.522;14.950;2023-05-19T11:42:31;20.70;90.80
11764;DHT22;5939;56.522;14.950;2023-05-19T11:44:57;20.70;90.60
11764;DHT22;5939;56.522;14.950;2023-05-19T11:47:22;20.70;90.50
11764;DHT22;5939;56.522;14.950;2023-05-19T11:49:49;20.70;89.70
11764;DHT22;5939;56.522;14.950;2023-05-19T11:52:16;20.80;90.00
11764;DHT22;5939;56.522;14.950;2023-05-19T11:54:42;20.80;90.00
11764;DHT22;5939;56.522;14.950;2023-05-19T11:57:08;20.80;90.20
11764;DHT22;5939;56.522;14.950;2023-05-19T11:59:38;20.80;90.10
11764;DHT22;5939;56.522;14.950;2023-05-19T12:02:21;20.80;90.10
11764;DHT22;5939;56.522;14.950;2023-05-19T12:04:49;20.90;89.80
11764;DHT22;5939;56.522;14.950;2023-05-19T12:07:16;20.90;89.10
11764;DHT22;5939;56.522;14.950;2023-05-19T12:09:44;20.90;89.10
11764;DHT22;5939;56.522;14.950;2023-05-19T12:12:15;20.90;89.30
11764;DHT22;5939;56.522;14.950;2023-05-19T12:14:42;21.00;90.30
11764;DHT22;5939;56.522;14.950;2023-05-19T12:19:38;21.00;90.20
11764;DHT22;5939;56.522;14.950;2023-05-19T12:22:06;21.10;89.80
11764;DHT22;5939;56.522;14.950;2023-05-19T12:24:33;21.10;89.10
11764;DHT22;5939;56.522;14.950;2023-05-19T12:27:19;21.10;87.70
11764;DHT22;5939;56.522;14.950;2023-05-19T12:29:52;21.10;89.70
11764;DHT22;5939;56.522;14.950;2023-05-19T12:32:25;21.10;89.80
11764;DHT22;5939;56.522;14.950;2023-05-19T12:34:52;21.20;90.00
11764;DHT22;5939;56.522;14.950;2023-05-19T12:37:20;21.20;90.50
11764;DHT22;5939;56.522;14.950;2023-05-19T12:39:47;21.20;90.20
11764;DHT22;5939;56.522;14.950;2023-05-19T12:42:14;21.20;90.40
11764;DHT22;5939;56.522;14.950;2023-05-19T12:44:47;21.20;90.60
11764;DHT22;5939;56.522;14.950;2023-05-19T12:47:15;21.20;90.70
11764;DHT22;5939;56.522;14.950;2023-05-19T12:52:27;21.30;90.50
11764;DHT22;5939;56.522;14.950;2023-05-19T12:55:02;21.30;90.60
11764;DHT22;5939;56.522;14.950;2023-05-19T12:57:35;21.30;90.60
11764;DHT22;5939;56.522;14.950;2023-05-19T13:02:33;21.40;90.80
11764;DHT22;5939;56.522;14.950;2023-05-19T13:04:59;21.40;90.60
11764;DHT22;5939;56.522;14.950;2023-05-19T13:07:25;21.40;91.00
11764;DHT22;5939;56.522;14.950;2023-05-19T13:09:51;21.30;90.80
11764;DHT22;5939;56.522;14.950;2023-05-19T13:12:17;21.30;90.70
11764;DHT22;5939;56.522;14.950;2023-05-19T13:14:43;21.30;89.20
11764;DHT22;5939;56.522;14.950;2023-05-19T13:17:09;21.30;90.10
11764;DHT22;5939;56.522;14.950;2023-05-19T13:19:34;21.30;90.20
11764;DHT22;5939;56.522;14.950;2023-05-19T13:22:00;21.20;90.40
11764;DHT22;5939;56.522;14.950;2023-05-19T13:24:25;21.20;90.10
11764;DHT22;5939;56.522;14.950;2023-05-19T13:26:51;21.20;90.40
11764;DHT22;5939;56.522;14.950;2023-05-19T13:29:17;21.10;90.60
11764;DHT22;5939;56.522;14.950;2023-05-19T13:31:42;21.10;90.40
11764;DHT22;5939;56.522;14.950;2023-05-19T13:34:08;21.10;90.00
11764;DHT22;5939;56.522;14.950;2023-05-19T13:36:34;21.00;90.00
11764;DHT22;5939;56.522;14.950;2023-05-19T13:39:00;21.00;90.10
11764;DHT22;5939;56.522;14.950;2023-05-19T13:41:26;20.90;90.00
11764;DHT22;5939;56.522;14.950;2023-05-19T13:43:55;20.90;88.80
11764;DHT22;5939;56.522;14.950;2023-05-19T13:46:21;20.80;89.60
11764;DHT22;5939;56.522;14.950;2023-05-19T13:48:46;20.80;89.30
11764;DHT22;5939;56.522;14.950;2023-05-19T13:51:12;20.80;90.00
11764;DHT22;5939;56.522;14.950;2023-05-19T13:53:38;20.70;89.00
11764;DHT22;5939;56.522;14.950;2023-05-19T13:56:04;20.70;88.90
11764;DHT22;5939;56.522;14.950;2023-05-19T13:58:30;20.70;88.50
11764;DHT22;5939;56.522;14.950;2023-05-19T14:00:55;20.60;88.90
11764;DHT22;5939;56.522;14.950;2023-05-19T14:03:24;20.60;89.00
11764;DHT22;5939;56.522;14.950;2023-05-19T14:05:50;20.50;89.10
11764;DHT22;5939;56.522;14.950;2023-05-19T14:08:17;20.50;89.40
11764;DHT22;5939;56.522;14.950;2023-05-19T14:10:45;20.40;89.20
11764;DHT22;5939;56.522;14.950;2023-05-19T14:13:10;20.40;89.70
11764;DHT22;5939;56.522;14.950;2023-05-19T14:15:37;20.40;89.40
11764;DHT22;5939;56.522;14.950;2023-05-19T14:18:03;20.30;89.40
11764;DHT22;5939;56.522;14.950;2023-05-19T14:20:29;20.30;88.60
11764;DHT22;5939;56.522;14.950;2023-05-19T14:22:55;20.30;88.70
11764;DHT22;5939;56.522;14.950;2023-05-19T14:25:21;20.20;89.30
11764;DHT22;5939;56.522;14.950;2023-05-19T14:27:47;20.20;88.60
11764;DHT22;5939;56.522;14.950;2023-05-19T14:30:12;20.10;88.00
11764;DHT22;5939;56.522;14.950;2023-05-19T14:32:38;20.10;88.10
11764;DHT22;5939;56.522;14.950;2023-05-19T14:35:04;20.10;88.40
11764;DHT22;5939;56.522;14.950;2023-05-19T14:37:30;20.10;88.60
11764;DHT22;5939;56.522;14.950;2023-05-19T14:39:57;20.00;87.90
11764;DHT22;5939;56.522;14.950;2023-05-19T14:42:22;20.00;88.10
11764;DHT22;5939;56.522;14.950;2023-05-19T14:44:48;20.00;87.90
11764;DHT22;5939;56.522;14.950;2023-05-19T14:47:14;19.90;87.50
11764;DHT22;5939;56.522;14.950;2023-05-19T14:49:39;19.90;87.40
11764;DHT22;5939;56.522;14.950;2023-05-19T14:52:05;19.90;87.50
11764;DHT22;5939;56.522;14.950;2023-05-19T14:54:31;19.80;87.30
11764;DHT22;5939;56.522;14.950;2023-05-19T14:56:57;19.80;87.50
11764;DHT22;5939;56.522;14.950;2023-05-19T14:59:22;19.70;87.80
11764;DHT22;5939;56.522;14.950;2023-05-19T15:01:49;19.70;88.10
11764;DHT22;5939;56.522;14.950;2023-05-19T15:04:14;19.70;88.20
11764;DHT22;5939;56.522;14.950;2023-05-19T15:06:40;19.70;88.10
11764;DHT22;5939;56.522;14.950;2023-05-19T15:09:06;19.60;88.30
11764;DHT22;5939;56.522;14.950;2023-05-19T15:11:31;19.60;88.40
11764;DHT22;5939;56.522;14.950;2023-05-19T15:13:57;19.60;88.70
11764;DHT22;5939;56.522;14.950;2023-05-19T15:16:23;19.60;89.00
11764;DHT22;5939;56.522;14.950;2023-05-19T15:18:48;19.60;89.10
11764;DHT22;5939;56.522;14.950;2023-05-19T15:21:16;19.50;89.20
11764;DHT22;5939;56.522;14.950;2023-05-19T15:23:41;19.50;89.00
11764;DHT22;5939;56.522;14.950;2023-05-19T15:26:07;19.50;89.00
11764;DHT22;5939;56.522;14.950;2023-05-19T15:28:33;19.50;88.90
11764;DHT22;5939;56.522;14.950;2023-05-19T15:30:58;19.40;89.00
11764;DHT22;5939;56.522;14.950;2023-05-19T15:33:24;19.40;88.70
11764;DHT22;5939;56.522;14.950;2023-05-19T15:35:49;19.40;88.80
11764;DHT22;5939;56.522;14.950;2023-05-19T15:38:17;19.30;88.50
11764;DHT22;5939;56.522;14.950;2023-05-19T15:40:43;19.30;88.40
11764;DHT22;5939;56.522;14.950;2023-05-19T15:43:09;19.30;88.60
11764;DHT22;5939;56.522;14.950;2023-05-19T15:45:34;19.30;88.60
11764;DHT22;5939;56.522;14.950;2023-05-19T15:48:00;19.20;88.40
11764;DHT22;5939;56.522;14.950;2023-05-19T15:50:26;19.20;88.60
11764;DHT22;5939;56.522;14.950;2023-05-19T15:52:51;19.20;88.10
11764;DHT22;5939;56.522;14.950;2023-05-19T15:55:17;19.10;87.90
11764;DHT22;5939;56.522;14.950;2023-05-19T15:57:43;19.10;88.00
11764;DHT22;5939;56.522;14.950;2023-05-19T16:00:09;19.10;88.30
11764;DHT22;5939;56.522;14.950;2023-05-19T16:02:35;19.00;87.50
11764;DHT22;5939;56.522;14.950;2023-05-19T16:05:00;19.00;87.70
11764;DHT22;5939;56.522;14.950;2023-05-19T16:07:26;19.00;87.00
11764;DHT22;5939;56.522;14.950;2023-05-19T16:09:52;18.90;87.10
11764;DHT22;5939;56.522;14.950;2023-05-19T16:12:17;18.90;86.80
11764;DHT22;5939;56.522;14.950;2023-05-19T16:14:43;18.90;86.60
11764;DHT22;5939;56.522;14.950;2023-05-19T16:17:09;18.80;86.90
11764;DHT22;5939;56.522;14.950;2023-05-19T16:19:39;18.80;87.10
11764;DHT22;5939;56.522;14.950;2023-05-19T16:22:04;18.80;86.80
11764;DHT22;5939;56.522;14.950;2023-05-19T16:24:30;18.70;86.70
11764;DHT22;5939;56.522;14.950;2023-05-19T16:26:56;18.70;86.70
11764;DHT22;5939;56.522;14.950;2023-05-19T16:29:22;18.70;87.20
11764;DHT22;5939;56.522;14.950;2023-05-19T16:31:48;18.60;86.70
11764;DHT22;5939;56.522;14.950;2023-05-19T16:34:14;18.60;86.60
11764;DHT22;5939;56.522;14.950;2023-05-19T16:36:39;18.50;86.60
11764;DHT22;5939;56.522;14.950;2023-05-19T16:39:05;18.50;86.50
11764;DHT22;5939;56.522;14.950;2023-05-19T16:41:31;18.50;86.50
11764;DHT22;5939;56.522;14.950;2023-05-19T16:43:57;18.40;86.50
11764;DHT22;5939;56.522;14.950;2023-05-19T16:46:23;18.40;86.50
11764;DHT22;5939;56.522;14.950;2023-05-19T16:48:49;18.40;87.00
11764;DHT22;5939;56.522;14.950;2023-05-19T16:51:14;18.30;86.80
11764;DHT22;5939;56.522;14.950;2023-05-19T16:53:40;18.30;86.80
11764;DHT22;5939;56.522;14.950;2023-05-19T16:56:06;18.30;87.10
11764;DHT22;5939;56.522;14.950;2023-05-19T16:58:32;18.20;87.10
11764;DHT22;5939;56.522;14.950;2023-05-19T17:00:58;18.20;87.40
11764;DHT22;5939;56.522;14.950;2023-05-19T17:03:24;18.20;87.50
11764;DHT22;5939;56.522;14.950;2023-05-19T17:05:50;18.10;87.60
11764;DHT22;5939;56.522;14.950;2023-05-19T17:08:16;18.10;87.60
11764;DHT22;5939;56.522;14.950;2023-05-19T17:10:42;18.10;87.60
11764;DHT22;5939;56.522;14.950;2023-05-19T17:13:09;18.00;87.80
11764;DHT22;5939;56.522;14.950;2023-05-19T17:15:35;18.00;87.90
11764;DHT22;5939;56.522;14.950;2023-05-19T17:18:01;18.00;88.00
11764;DHT22;5939;56.522;14.950;2023-05-19T17:20:27;17.90;87.90
11764;DHT22;5939;56.522;14.950;2023-05-19T17:22:52;17.90;88.30
11764;DHT22;5939;56.522;14.950;2023-05-19T17:25:18;17.90;88.00
11764;DHT22;5939;56.522;14.950;2023-05-19T17:27:44;17.90;88.10
11764;DHT22;5939;56.522;14.950;2023-05-19T17:30:10;17.80;87.90
11764;DHT22;5939;56.522;14.950;2023-05-19T17:32:36;17.80;88.10
11764;DHT22;5939;56.522;14.950;2023-05-19T17:35:04;17.80;88.00
11764;DHT22;5939;56.522;14.950;2023-05-19T17:37:31;17.70;87.90
11764;DHT22;5939;56.522;14.950;2023-05-19T17:39:57;17.70;87.60
11764;DHT22;5939;56.522;14.950;2023-05-19T17:42:22;17.70;87.50
11764;DHT22;5939;56.522;14.950;2023-05-19T17:44:48;17.60;87.70
11764;DHT22;5939;56.522;14.950;2023-05-19T17:47:14;17.60;87.70
11764;DHT22;5939;56.522;14.950;2023-05-19T17:49:39;17.60;87.70
11764;DHT22;5939;56.522;14.950;2023-05-19T17:52:06;17.50;87.90
11764;DHT22;5939;56.522;14.950;2023-05-19T17:54:32;17.50;88.00
11764;DHT22;5939;56.522;14.950;2023-05-19T17:57:00;17.50;88.10
11764;DHT22;5939;56.522;14.950;2023-05-19T17:59:28;17.40;88.30
11764;DHT22;5939;56.522;14.950;2023-05-19T18:01:55;17.40;88.40
11764;DHT22;5939;56.522;14.950;2023-05-19T18:04:20;17.40;88.50
11764;DHT22;5939;56.522;14.950;2023-05-19T18:06:47;17.40;88.50
11764;DHT22;5939;56.522;14.950;2023-05-19T18:09:15;17.30;88.50
11764;DHT22;5939;56.522;14.950;2023-05-19T18:11:43;17.30;88.70
11764;DHT22;5939;56.522;14.950;2023-05-19T18:14:09;17.30;88.90
11764;DHT22;5939;56.522;14.950;2023-05-19T18:16:34;17.20;88.80
11764;DHT22;5939;56.522;14.950;2023-05-19T18:19:00;17.20;89.60
11764;DHT22;5939;56.522;14.950;2023-05-19T18:21:26;17.20;89.00
11764;DHT22;5939;56.522;14.950;2023-05-19T18:23:52;17.10;89.10
11764;DHT22;5939;56.522;14.950;2023-05-19T18:26:18;17.10;89.00
11764;DHT22;5939;56.522;14.950;2023-05-19T18:28:43;17.10;89.10
11764;DHT22;5939;56.522;14.950;2023-05-19T18:31:09;17.00;89.20
11764;DHT22;5939;56.522;14.950;2023-05-19T18:33:40;17.00;89.20
11764;DHT22;5939;56.522;14.950;2023-05-19T18:36:07;17.00;89.30
11764;DHT22;5939;56.522;14.950;2023-05-19T18:38:32;17.00;89.40
11764;DHT22;5939;56.522;14.950;2023-05-19T18:40:58;16.90;89.50
11764;DHT22;5939;56.522;14.950;2023-05-19T18:43:25;16.90;89.60
11764;DHT22;5939;56.522;14.950;2023-05-19T18:45:51;16.90;89.70
11764;DHT22;5939;56.522;14.950;2023-05-19T18:48:17;16.80;89.70
11764;DHT22;5939;56.522;14.950;2023-05-19T18:50:42;16.80;89.90
11764;DHT22;5939;56.522;14.950;2023-05-19T18:53:10;16.70;89.80
11764;DHT22;5939;56.522;14.950;2023-05-19T18:55:36;16.70;89.90
11764;DHT22;5939;56.522;14.950;2023-05-19T18:58:01;16.70;89.90
11764;DHT22;5939;56.522;14.950;2023-05-19T19:00:27;16.70;90.00
11764;DHT22;5939;56.522;14.950;2023-05-19T19:02:53;16.60;89.90
11764;DHT22;5939;56.522;14.950;2023-05-19T19:05:20;16.60;90.00
11764;DHT22;5939;56.522;14.950;2023-05-19T19:07:45;16.60;90.00
11764;DHT22;5939;56.522;14.950;2023-05-19T19:10:11;16.50;89.90
11764;DHT22;5939;56.522;14.950;2023-05-19T19:12:37;16.50;89.90
11764;DHT22;5939;56.522;14.950;2023-05-19T19:15:03;16.40;89.90
11764;DHT22;5939;56.522;14.950;2023-05-19T19:17:29;16.40;90.00
11764;DHT22;5939;56.522;14.950;2023-05-19T19:19:55;16.40;90.00
11764;DHT22;5939;56.522;14.950;2023-05-19T19:22:21;16.40;90.00
11764;DHT22;5939;56.522;14.950;2023-05-19T19:24:47;16.30;90.00
11764;DHT22;5939;56.522;14.950;2023-05-19T19:27:12;16.30;90.00
11764;DHT22;5939;56.522;14.950;2023-05-19T19:29:42;16.20;90.10
11764;DHT22;5939;56.522;14.950;2023-05-19T19:32:07;16.80;90.20
11764;DHT22;5939;56.522;14.950;2023-05-19T19:34:33;16.10;90.10
11764;DHT22;5939;56.522;14.950;2023-05-19T19:36:59;16.10;90.10
11764;DHT22;5939;56.522;14.950;2023-05-19T19:39:24;16.10;90.10
11764;DHT22;5939;56.522;14.950;2023-05-19T19:41:50;16.00;90.50
11764;DHT22;5939;56.522;14.950;2023-05-19T19:44:15;16.00;90.20
11764;DHT22;5939;56.522;14.950;2023-05-19T19:46:41;16.00;90.10
11764;DHT22;5939;56.522;14.950;2023-05-19T19:49:07;15.90;90.10
11764;DHT22;5939;56.522;14.950;2023-05-19T19:51:33;15.90;90.10
11764;DHT22;5939;56.522;14.950;2023-05-19T19:53:58;15.90;90.20
11764;DHT22;5939;56.522;14.950;2023-05-19T19:56:24;15.80;90.10
11764;DHT22;5939;56.522;14.950;2023-05-19T19:58:51;15.80;90.20
11764;DHT22;5939;56.522;14.950;2023-05-19T20:01:17;15.70;90.20
11764;DHT22;5939;56.522;14.950;2023-05-19T20:03:48;15.70;90.20
11764;DHT22;5939;56.522;14.950;2023-05-19T20:06:14;15.60;90.20
11764;DHT22;5939;56.522;14.950;2023-05-19T20:08:39;15.60;90.20
11764;DHT22;5939;56.522;14.950;2023-05-19T20:11:05;15.60;90.30
11764;DHT22;5939;56.522;14.950;2023-05-19T20:13:31;15.50;90.30
11764;DHT22;5939;56.522;14.950;2023-05-19T20:15:56;15.50;90.30
11764;DHT22;5939;56.522;14.950;2023-05-19T20:18:22;15.50;90.30
11764;DHT22;5939;56.522;14.950;2023-05-19T20:20:49;15.50;90.30
11764;DHT22;5939;56.522;14.950;2023-05-19T20:23:15;15.40;90.30
11764;DHT22;5939;56.522;14.950;2023-05-19T20:25:40;15.40;90.30
11764;DHT22;5939;56.522;14.950;2023-05-19T20:28:07;15.30;90.40
11764;DHT22;5939;56.522;14.950;2023-05-19T20:30:33;15.30;90.40
11764;DHT22;5939;56.522;14.950;2023-05-19T20:32:58;15.20;90.40
11764;DHT22;5939;56.522;14.950;2023-05-19T20:35:24;15.20;90.40
11764;DHT22;5939;56.522;14.950;2023-05-19T20:37:50;15.20;90.40
11764;DHT22;5939;56.522;14.950;2023-05-19T20:40:16;15.10;90.40
11764;DHT22;5939;56.522;14.950;2023-05-19T20:42:41;15.10;90.40
11764;DHT22;5939;56.522;14.950;2023-05-19T20:45:07;15.10;90.40
11764;DHT22;5939;56.522;14.950;2023-05-19T20:47:33;15.00;90.40
11764;DHT22;5939;56.522;14.950;2023-05-19T20:49:58;15.00;90.50
11764;DHT22;5939;56.522;14.950;2023-05-19T20:52:24;14.90;90.40
11764;DHT22;5939;56.522;14.950;2023-05-19T20:54:51;14.90;90.40
11764;DHT22;5939;56.522;14.950;2023-05-19T20:57:17;14.90;90.40
11764;DHT22;5939;56.522;14.950;2023-05-19T20:59:42;14.80;90.50
11764;DHT22;5939;56.522;14.950;2023-05-19T21:02:08;14.80;90.50
11764;DHT22;5939;56.522;14.950;2023-05-19T21:04:34;14.80;90.50
11764;DHT22;5939;56.522;14.950;2023-05-19T21:07:00;14.70;90.50
11764;DHT22;5939;56.522;14.950;2023-05-19T21:09:26;14.70;90.50
11764;DHT22;5939;56.522;14.950;2023-05-19T21:11:51;14.60;90.50
11764;DHT22;5939;56.522;14.950;2023-05-19T21:14:18;14.60;90.50
11764;DHT22;5939;56.522;14.950;2023-05-19T21:16:47;14.60;90.60
11764;DHT22;5939;56.522;14.950;2023-05-19T21:19:13;14.50;90.50
11764;DHT22;5939;56.522;14.950;2023-05-19T21:21:38;14.50;90.50
11764;DHT22;5939;56.522;14.950;2023-05-19T21:24:07;14.40;90.60
11764;DHT22;5939;56.522;14.950;2023-05-19T21:26:34;14.40;90.60
11764;DHT22;5939;56.522;14.950;2023-05-19T21:28:59;14.30;90.60
11764;DHT22;5939;56.522;14.950;2023-05-19T21:31:25;14.30;90.60
11764;DHT22;5939;56.522;14.950;2023-05-19T21:33:51;14.30;90.60
11764;DHT22;5939;56.522;14.950;2023-05-19T21:36:16;14.20;90.60
11764;DHT22;5939;56.522;14.950;2023-05-19T21:38:42;14.20;90.60
11764;DHT22;5939;56.522;14.950;2023-05-19T21:41:08;14.20;90.70
11764;DHT22;5939;56.522;14.950;2023-05-19T21:43:33;14.10;90.80
11764;DHT22;5939;56.522;14.950;2023-05-19T21:45:59;14.10;90.80
11764;DHT22;5939;56.522;14.950;2023-05-19T21:48:25;14.00;90.80
11764;DHT22;5939;56.522;14.950;2023-05-19T21:50:54;14.00;90.80